sensor_id;sensor_type;location;lat;lon;timestamp;P1;durP1;ratioP1;P2;durP2;ratioP2
75887;SDS011;64562;55.662;37.300;2024-01-25T00:01:35;29.50;;;15.70;;
75887;SDS011;64562;55.662;37.300;2024-01-25T00:04:02;32.90;;;16.83;;
75887;SDS011;64562;55.662;37.300;2024-01-25T00:06:29;30.20;;;17.02;;
75887;SDS011;64562;55.662;37.300;2024-01-25T00:08:56;33.70;;;18.13;;
75887;SDS011;64562;55.662;37.300;2024-01-25T00:11:23;34.10;;;20.02;;
75887;SDS011;64562;55.662;37.300;2024-01-25T00:13:52;37.58;;;18.55;;
75887;SDS011;64562;55.662;37.300;2024-01-25T00:16:18;29.67;;;17.17;;
75887;SDS011;64562;55.662;37.300;2024-01-25T00:18:45;36.55;;;18.40;;
75887;SDS011;64562;55.662;37.300;2024-01-25T00:21:14;30.33;;;15.75;;
75887;SDS011;64562;55.662;37.300;2024-01-25T00:23:40;25.23;;;14.00;;
75887;SDS011;64562;55.662;37.300;2024-01-25T00:26:07;25.20;;;13.15;;
75887;SDS011;64562;55.662;37.300;2024-01-25T00:28:34;24.42;;;13.35;;
75887;SDS011;64562;55.662;37.300;2024-01-25T00:31:02;23.20;;;12.85;;
75887;SDS011;64562;55.662;37.300;2024-01-25T00:33:29;24.80;;;12.65;;
75887;SDS011;64562;55.662;37.300;2024-01-25T00:35:56;26.33;;;12.68;;
75887;SDS011;64562;55.662;37.300;2024-01-25T00:38:23;22.17;;;11.10;;
75887;SDS011;64562;55.662;37.300;2024-01-25T00:40:50;19.00;;;10.75;;
75887;SDS011;64562;55.662;37.300;2024-01-25T00:43:17;17.58;;;9.38;;
75887;SDS011;64562;55.662;37.300;2024-01-25T00:45:44;20.17;;;9.43;;
75887;SDS011;64562;55.662;37.300;2024-01-25T00:48:13;19.10;;;10.23;;
75887;SDS011;64562;55.662;37.300;2024-01-25T00:50:40;17.83;;;9.95;;
75887;SDS011;64562;55.662;37.300;2024-01-25T00:53:07;15.80;;;8.10;;
75887;SDS011;64562;55.662;37.300;2024-01-25T00:55:34;20.90;;;9.05;;
75887;SDS011;64562;55.662;37.300;2024-01-25T00:58:01;14.40;;;7.40;;
75887;SDS011;64562;55.662;37.300;2024-01-25T01:00:28;16.83;;;8.07;;
75887;SDS011;64562;55.662;37.300;2024-01-25T01:02:55;15.13;;;8.05;;
75887;SDS011;64562;55.662;37.300;2024-01-25T01:05:24;13.80;;;7.15;;
75887;SDS011;64562;55.662;37.300;2024-01-25T01:07:52;15.30;;;8.40;;
75887;SDS011;64562;55.662;37.300;2024-01-25T01:10:19;14.02;;;7.50;;
75887;SDS011;64562;55.662;37.300;2024-01-25T01:12:45;17.23;;;6.68;;
75887;SDS011;64562;55.662;37.300;2024-01-25T01:15:12;14.10;;;6.65;;
75887;SDS011;64562;55.662;37.300;2024-01-25T01:17:39;12.77;;;7.22;;
75887;SDS011;64562;55.662;37.300;2024-01-25T01:20:06;11.07;;;6.75;;
75887;SDS011;64562;55.662;37.300;2024-01-25T01:22:34;11.73;;;6.38;;
75887;SDS011;64562;55.662;37.300;2024-01-25T01:25:01;12.70;;;7.03;;
75887;SDS011;64562;55.662;37.300;2024-01-25T01:27:28;11.23;;;5.78;;
75887;SDS011;64562;55.662;37.300;2024-01-25T01:29:55;11.50;;;5.70;;
75887;SDS011;64562;55.662;37.300;2024-01-25T01:32:21;13.15;;;5.82;;
75887;SDS011;64562;55.662;37.300;2024-01-25T01:34:48;9.40;;;4.68;;
75887;SDS011;64562;55.662;37.300;2024-01-25T01:37:15;12.60;;;6.07;;
75887;SDS011;64562;55.662;37.300;2024-01-25T01:39:43;10.35;;;5.82;;
75887;SDS011;64562;55.662;37.300;2024-01-25T01:42:10;11.52;;;4.95;;
75887;SDS011;64562;55.662;37.300;2024-01-25T01:44:37;10.35;;;5.07;;
75887;SDS011;64562;55.662;37.300;2024-01-25T01:47:05;9.15;;;5.18;;
75887;SDS011;64562;55.662;37.300;2024-01-25T01:49:32;9.77;;;4.97;;
75887;SDS011;64562;55.662;37.300;2024-01-25T01:51:58;8.10;;;4.63;;
75887;SDS011;64562;55.662;37.300;2024-01-25T01:54:25;11.23;;;5.20;;
75887;SDS011;64562;55.662;37.300;2024-01-25T01:56:53;9.55;;;4.72;;
75887;SDS011;64562;55.662;37.300;2024-01-25T01:59:21;13.15;;;5.22;;
75887;SDS011;64562;55.662;37.300;2024-01-25T02:01:50;9.65;;;4.68;;
75887;SDS011;64562;55.662;37.300;2024-01-25T02:04:17;7.18;;;4.25;;
75887;SDS011;64562;55.662;37.300;2024-01-25T02:06:44;8.52;;;4.65;;
75887;SDS011;64562;55.662;37.300;2024-01-25T02:09:11;10.00;;;4.45;;
75887;SDS011;64562;55.662;37.300;2024-01-25T02:11:38;8.50;;;4.13;;
75887;SDS011;64562;55.662;37.300;2024-01-25T02:14:06;8.88;;;4.30;;
75887;SDS011;64562;55.662;37.300;2024-01-25T02:16:36;7.65;;;3.85;;
75887;SDS011;64562;55.662;37.300;2024-01-25T02:19:02;8.40;;;4.15;;
75887;SDS011;64562;55.662;37.300;2024-01-25T02:21:29;8.23;;;4.03;;
75887;SDS011;64562;55.662;37.300;2024-01-25T02:23:57;9.07;;;4.18;;
75887;SDS011;64562;55.662;37.300;2024-01-25T02:26:24;8.15;;;4.18;;
75887;SDS011;64562;55.662;37.300;2024-01-25T02:28:51;6.18;;;3.50;;
75887;SDS011;64562;55.662;37.300;2024-01-25T02:31:17;6.90;;;3.72;;
75887;SDS011;64562;55.662;37.300;2024-01-25T02:33:44;7.18;;;3.53;;
75887;SDS011;64562;55.662;37.300;2024-01-25T02:36:11;7.10;;;3.50;;
75887;SDS011;64562;55.662;37.300;2024-01-25T02:38:38;7.28;;;3.10;;
75887;SDS011;64562;55.662;37.300;2024-01-25T02:41:06;6.88;;;3.30;;
75887;SDS011;64562;55.662;37.300;2024-01-25T02:43:33;7.22;;;3.40;;
75887;SDS011;64562;55.662;37.300;2024-01-25T02:45:59;6.07;;;3.40;;
75887;SDS011;64562;55.662;37.300;2024-01-25T02:48:26;5.70;;;3.00;;
75887;SDS011;64562;55.662;37.300;2024-01-25T02:50:53;7.30;;;3.63;;
75887;SDS011;64562;55.662;37.300;2024-01-25T02:53:19;5.47;;;3.03;;
75887;SDS011;64562;55.662;37.300;2024-01-25T02:55:45;4.75;;;2.70;;
75887;SDS011;64562;55.662;37.300;2024-01-25T02:58:13;6.63;;;3.50;;
75887;SDS011;64562;55.662;37.300;2024-01-25T03:00:40;6.70;;;3.30;;
75887;SDS011;64562;55.662;37.300;2024-01-25T03:03:07;6.85;;;2.90;;
75887;SDS011;64562;55.662;37.300;2024-01-25T03:05:34;6.68;;;2.95;;
75887;SDS011;64562;55.662;37.300;2024-01-25T03:08:01;5.35;;;2.95;;
75887;SDS011;64562;55.662;37.300;2024-01-25T03:10:27;6.32;;;3.05;;
75887;SDS011;64562;55.662;37.300;2024-01-25T03:12:54;5.00;;;2.97;;
75887;SDS011;64562;55.662;37.300;2024-01-25T03:15:22;5.05;;;2.80;;
75887;SDS011;64562;55.662;37.300;2024-01-25T03:17:49;6.10;;;3.17;;
75887;SDS011;64562;55.662;37.300;2024-01-25T03:20:16;4.95;;;2.70;;
75887;SDS011;64562;55.662;37.300;2024-01-25T03:22:43;4.97;;;2.88;;
75887;SDS011;64562;55.662;37.300;2024-01-25T03:25:10;6.97;;;3.00;;
75887;SDS011;64562;55.662;37.300;2024-01-25T03:27:37;4.80;;;2.83;;
75887;SDS011;64562;55.662;37.300;2024-01-25T03:30:04;4.57;;;2.67;;
75887;SDS011;64562;55.662;37.300;2024-01-25T03:32:32;6.18;;;3.00;;
75887;SDS011;64562;55.662;37.300;2024-01-25T03:34:59;4.88;;;2.53;;
75887;SDS011;64562;55.662;37.300;2024-01-25T03:37:25;3.88;;;2.15;;
75887;SDS011;64562;55.662;37.300;2024-01-25T03:39:51;5.10;;;2.58;;
75887;SDS011;64562;55.662;37.300;2024-01-25T03:42:18;4.63;;;2.40;;
75887;SDS011;64562;55.662;37.300;2024-01-25T03:44:45;4.60;;;2.45;;
75887;SDS011;64562;55.662;37.300;2024-01-25T03:47:11;6.07;;;2.60;;
75887;SDS011;64562;55.662;37.300;2024-01-25T03:49:39;3.92;;;2.42;;
75887;SDS011;64562;55.662;37.300;2024-01-25T03:52:06;4.68;;;2.63;;
75887;SDS011;64562;55.662;37.300;2024-01-25T03:54:33;4.47;;;2.47;;
75887;SDS011;64562;55.662;37.300;2024-01-25T03:56:59;4.47;;;2.03;;
75887;SDS011;64562;55.662;37.300;2024-01-25T03:59:26;6.05;;;2.45;;
75887;SDS011;64562;55.662;37.300;2024-01-25T04:01:53;4.15;;;1.98;;
75887;SDS011;64562;55.662;37.300;2024-01-25T04:04:19;4.95;;;2.35;;
75887;SDS011;64562;55.662;37.300;2024-01-25T04:06:48;4.30;;;2.53;;
75887;SDS011;64562;55.662;37.300;2024-01-25T04:09:14;3.97;;;2.03;;
75887;SDS011;64562;55.662;37.300;2024-01-25T04:11:41;4.28;;;2.28;;
75887;SDS011;64562;55.662;37.300;2024-01-25T04:14:08;5.88;;;2.28;;
75887;SDS011;64562;55.662;37.300;2024-01-25T04:16:35;4.10;;;2.30;;
75887;SDS011;64562;55.662;37.300;2024-01-25T04:19:01;3.05;;;1.75;;
75887;SDS011;64562;55.662;37.300;2024-01-25T04:21:28;4.72;;;2.00;;
75887;SDS011;64562;55.662;37.300;2024-01-25T04:23:56;6.43;;;2.55;;
75887;SDS011;64562;55.662;37.300;2024-01-25T04:26:23;10.85;;;2.50;;
75887;SDS011;64562;55.662;37.300;2024-01-25T04:28:50;8.82;;;3.10;;
75887;SDS011;64562;55.662;37.300;2024-01-25T04:31:16;6.20;;;2.53;;
75887;SDS011;64562;55.662;37.300;2024-01-25T04:33:44;7.85;;;2.50;;
75887;SDS011;64562;55.662;37.300;2024-01-25T04:36:11;9.73;;;2.80;;
75887;SDS011;64562;55.662;37.300;2024-01-25T04:38:38;6.80;;;2.25;;
75887;SDS011;64562;55.662;37.300;2024-01-25T04:41:06;7.32;;;2.75;;
75887;SDS011;64562;55.662;37.300;2024-01-25T04:43:35;6.45;;;2.10;;
75887;SDS011;64562;55.662;37.300;2024-01-25T04:46:02;4.57;;;2.20;;
75887;SDS011;64562;55.662;37.300;2024-01-25T04:48:29;7.03;;;2.20;;
75887;SDS011;64562;55.662;37.300;2024-01-25T04:50:56;7.03;;;2.58;;
75887;SDS011;64562;55.662;37.300;2024-01-25T04:53:24;5.97;;;2.42;;
75887;SDS011;64562;55.662;37.300;2024-01-25T04:55:50;7.53;;;2.35;;
75887;SDS011;64562;55.662;37.300;2024-01-25T04:58:18;6.70;;;2.03;;
75887;SDS011;64562;55.662;37.300;2024-01-25T05:00:45;4.88;;;2.22;;
75887;SDS011;64562;55.662;37.300;2024-01-25T05:03:12;4.35;;;2.17;;
75887;SDS011;64562;55.662;37.300;2024-01-25T05:05:39;5.18;;;2.35;;
75887;SDS011;64562;55.662;37.300;2024-01-25T05:08:06;3.72;;;2.13;;
75887;SDS011;64562;55.662;37.300;2024-01-25T05:10:32;8.80;;;2.10;;
75887;SDS011;64562;55.662;37.300;2024-01-25T05:12:59;4.07;;;1.92;;
75887;SDS011;64562;55.662;37.300;2024-01-25T05:15:27;4.13;;;1.92;;
75887;SDS011;64562;55.662;37.300;2024-01-25T05:17:54;2.95;;;1.75;;
75887;SDS011;64562;55.662;37.300;2024-01-25T05:20:20;4.43;;;2.03;;
75887;SDS011;64562;55.662;37.300;2024-01-25T05:22:47;2.92;;;1.73;;
75887;SDS011;64562;55.662;37.300;2024-01-25T05:25:14;5.30;;;1.92;;
75887;SDS011;64562;55.662;37.300;2024-01-25T05:27:41;3.05;;;1.75;;
75887;SDS011;64562;55.662;37.300;2024-01-25T05:30:08;3.10;;;2.00;;
75887;SDS011;64562;55.662;37.300;2024-01-25T05:32:36;4.15;;;1.90;;
75887;SDS011;64562;55.662;37.300;2024-01-25T05:35:04;5.85;;;2.00;;
75887;SDS011;64562;55.662;37.300;2024-01-25T05:37:31;2.25;;;1.58;;
75887;SDS011;64562;55.662;37.300;2024-01-25T05:39:57;3.03;;;1.67;;
75887;SDS011;64562;55.662;37.300;2024-01-25T05:42:24;3.83;;;1.63;;
75887;SDS011;64562;55.662;37.300;2024-01-25T05:44:51;4.15;;;1.80;;
75887;SDS011;64562;55.662;37.300;2024-01-25T05:47:17;2.95;;;1.75;;
75887;SDS011;64562;55.662;37.300;2024-01-25T05:49:46;4.10;;;1.55;;
75887;SDS011;64562;55.662;37.300;2024-01-25T05:52:13;3.05;;;1.67;;
75887;SDS011;64562;55.662;37.300;2024-01-25T05:54:40;2.58;;;1.40;;
75887;SDS011;64562;55.662;37.300;2024-01-25T05:57:06;3.95;;;2.30;;
75887;SDS011;64562;55.662;37.300;2024-01-25T05:59:33;3.40;;;1.60;;
75887;SDS011;64562;55.662;37.300;2024-01-25T06:02:00;3.65;;;1.58;;
75887;SDS011;64562;55.662;37.300;2024-01-25T06:04:27;4.07;;;1.58;;
75887;SDS011;64562;55.662;37.300;2024-01-25T06:06:55;2.97;;;1.40;;
75887;SDS011;64562;55.662;37.300;2024-01-25T06:09:23;3.42;;;1.65;;
75887;SDS011;64562;55.662;37.300;2024-01-25T06:11:50;4.13;;;2.10;;
75887;SDS011;64562;55.662;37.300;2024-01-25T06:14:16;4.05;;;2.08;;
75887;SDS011;64562;55.662;37.300;2024-01-25T06:16:43;3.20;;;1.58;;
75887;SDS011;64562;55.662;37.300;2024-01-25T06:19:10;4.32;;;1.50;;
75887;SDS011;64562;55.662;37.300;2024-01-25T06:21:37;5.28;;;1.88;;
75887;SDS011;64562;55.662;37.300;2024-01-25T06:24:05;3.13;;;1.40;;
75887;SDS011;64562;55.662;37.300;2024-01-25T06:26:32;4.88;;;1.90;;
75887;SDS011;64562;55.662;37.300;2024-01-25T06:28:59;2.95;;;1.58;;
75887;SDS011;64562;55.662;37.300;2024-01-25T06:31:26;2.75;;;1.40;;
75887;SDS011;64562;55.662;37.300;2024-01-25T06:33:52;3.42;;;1.67;;
75887;SDS011;64562;55.662;37.300;2024-01-25T06:36:19;4.50;;;1.70;;
75887;SDS011;64562;55.662;37.300;2024-01-25T06:38:46;2.58;;;1.65;;
75887;SDS011;64562;55.662;37.300;2024-01-25T06:41:14;4.15;;;1.63;;
75887;SDS011;64562;55.662;37.300;2024-01-25T06:43:41;6.10;;;1.90;;
75887;SDS011;64562;55.662;37.300;2024-01-25T06:46:08;3.72;;;2.25;;
75887;SDS011;64562;55.662;37.300;2024-01-25T06:48:35;4.38;;;1.80;;
75887;SDS011;64562;55.662;37.300;2024-01-25T06:51:02;7.28;;;1.75;;
75887;SDS011;64562;55.662;37.300;2024-01-25T06:53:28;3.55;;;1.80;;
75887;SDS011;64562;55.662;37.300;2024-01-25T06:55:55;3.42;;;1.65;;
75887;SDS011;64562;55.662;37.300;2024-01-25T06:58:24;2.88;;;1.65;;
75887;SDS011;64562;55.662;37.300;2024-01-25T07:00:50;3.88;;;1.63;;
75887;SDS011;64562;55.662;37.300;2024-01-25T07:03:18;2.38;;;1.35;;
75887;SDS011;64562;55.662;37.300;2024-01-25T07:05:44;3.63;;;1.90;;
75887;SDS011;64562;55.662;37.300;2024-01-25T07:08:11;2.85;;;1.42;;
75887;SDS011;64562;55.662;37.300;2024-01-25T07:10:38;3.92;;;1.55;;
75887;SDS011;64562;55.662;37.300;2024-01-25T07:13:05;3.03;;;1.73;;
75887;SDS011;64562;55.662;37.300;2024-01-25T07:15:33;3.78;;;1.73;;
75887;SDS011;64562;55.662;37.300;2024-01-25T07:18:00;3.78;;;1.52;;
75887;SDS011;64562;55.662;37.300;2024-01-25T07:20:27;4.75;;;1.65;;
75887;SDS011;64562;55.662;37.300;2024-01-25T07:22:54;2.50;;;1.65;;
75887;SDS011;64562;55.662;37.300;2024-01-25T07:25:21;4.57;;;1.92;;
75887;SDS011;64562;55.662;37.300;2024-01-25T07:27:48;3.67;;;1.60;;
75887;SDS011;64562;55.662;37.300;2024-01-25T07:30:15;3.38;;;1.85;;
75887;SDS011;64562;55.662;37.300;2024-01-25T07:32:44;3.83;;;1.73;;
75887;SDS011;64562;55.662;37.300;2024-01-25T07:35:11;3.80;;;1.70;;
75887;SDS011;64562;55.662;37.300;2024-01-25T07:37:38;4.45;;;1.50;;
75887;SDS011;64562;55.662;37.300;2024-01-25T07:40:06;3.28;;;1.50;;
75887;SDS011;64562;55.662;37.300;2024-01-25T07:42:33;3.55;;;1.63;;
75887;SDS011;64562;55.662;37.300;2024-01-25T07:44:59;4.93;;;1.92;;
75887;SDS011;64562;55.662;37.300;2024-01-25T07:47:26;4.22;;;1.92;;
75887;SDS011;64562;55.662;37.300;2024-01-25T07:49:54;2.53;;;1.60;;
75887;SDS011;64562;55.662;37.300;2024-01-25T07:52:21;4.68;;;2.03;;
75887;SDS011;64562;55.662;37.300;2024-01-25T07:54:48;4.22;;;1.85;;
75887;SDS011;64562;55.662;37.300;2024-01-25T07:57:15;4.82;;;2.28;;
75887;SDS011;64562;55.662;37.300;2024-01-25T07:59:41;3.38;;;1.80;;
75887;SDS011;64562;55.662;37.300;2024-01-25T08:02:08;3.40;;;1.65;;
75887;SDS011;64562;55.662;37.300;2024-01-25T08:04:35;4.05;;;1.80;;
75887;SDS011;64562;55.662;37.300;2024-01-25T08:07:03;2.92;;;1.70;;
75887;SDS011;64562;55.662;37.300;2024-01-25T08:09:30;3.40;;;1.85;;
75887;SDS011;64562;55.662;37.300;2024-01-25T08:11:57;4.60;;;2.00;;
75887;SDS011;64562;55.662;37.300;2024-01-25T08:14:23;4.07;;;1.92;;
75887;SDS011;64562;55.662;37.300;2024-01-25T08:16:50;3.30;;;1.88;;
75887;SDS011;64562;55.662;37.300;2024-01-25T08:19:17;5.47;;;1.95;;
75887;SDS011;64562;55.662;37.300;2024-01-25T08:21:44;3.25;;;1.70;;
75887;SDS011;64562;55.662;37.300;2024-01-25T08:24:13;2.88;;;1.52;;
75887;SDS011;64562;55.662;37.300;2024-01-25T08:26:40;5.85;;;1.83;;
75887;SDS011;64562;55.662;37.300;2024-01-25T08:29:06;3.28;;;1.98;;
75887;SDS011;64562;55.662;37.300;2024-01-25T08:31:33;2.95;;;1.63;;
75887;SDS011;64562;55.662;37.300;2024-01-25T08:34:00;2.83;;;1.75;;
75887;SDS011;64562;55.662;37.300;2024-01-25T08:36:26;4.43;;;1.80;;
75887;SDS011;64562;55.662;37.300;2024-01-25T08:38:53;2.92;;;1.80;;
75887;SDS011;64562;55.662;37.300;2024-01-25T08:41:21;2.22;;;1.50;;
75887;SDS011;64562;55.662;37.300;2024-01-25T08:43:49;3.20;;;1.60;;
75887;SDS011;64562;55.662;37.300;2024-01-25T08:46:16;4.82;;;2.30;;
75887;SDS011;64562;55.662;37.300;2024-01-25T08:48:43;2.67;;;1.90;;
75887;SDS011;64562;55.662;37.300;2024-01-25T08:51:09;2.85;;;1.80;;
75887;SDS011;64562;55.662;37.300;2024-01-25T08:53:36;4.03;;;1.90;;
75887;SDS011;64562;55.662;37.300;2024-01-25T08:56:03;3.58;;;1.85;;
75887;SDS011;64562;55.662;37.300;2024-01-25T08:58:32;4.07;;;1.90;;
75887;SDS011;64562;55.662;37.300;2024-01-25T09:00:58;4.10;;;1.80;;
75887;SDS011;64562;55.662;37.300;2024-01-25T09:03:25;4.68;;;1.70;;
75887;SDS011;64562;55.662;37.300;2024-01-25T09:05:52;3.25;;;1.88;;
75887;SDS011;64562;55.662;37.300;2024-01-25T09:08:19;4.85;;;1.88;;
75887;SDS011;64562;55.662;37.300;2024-01-25T09:10:46;2.80;;;1.80;;
75887;SDS011;64562;55.662;37.300;2024-01-25T09:13:13;2.72;;;1.67;;
75887;SDS011;64562;55.662;37.300;2024-01-25T09:15:42;5.18;;;2.00;;
75887;SDS011;64562;55.662;37.300;2024-01-25T09:18:11;3.55;;;1.63;;
75887;SDS011;64562;55.662;37.300;2024-01-25T09:20:38;3.42;;;1.60;;
75887;SDS011;64562;55.662;37.300;2024-01-25T09:23:06;3.65;;;1.65;;
75887;SDS011;64562;55.662;37.300;2024-01-25T09:25:32;2.47;;;1.77;;
75887;SDS011;64562;55.662;37.300;2024-01-25T09:27:59;4.82;;;2.05;;
75887;SDS011;64562;55.662;37.300;2024-01-25T09:30:26;5.00;;;1.98;;
75887;SDS011;64562;55.662;37.300;2024-01-25T09:32:55;2.95;;;1.65;;
75887;SDS011;64562;55.662;37.300;2024-01-25T09:35:22;4.05;;;1.60;;
75887;SDS011;64562;55.662;37.300;2024-01-25T09:37:49;4.35;;;1.85;;
75887;SDS011;64562;55.662;37.300;2024-01-25T09:40:17;2.70;;;1.58;;
75887;SDS011;64562;55.662;37.300;2024-01-25T09:42:46;3.08;;;1.60;;
75887;SDS011;64562;55.662;37.300;2024-01-25T09:45:13;2.35;;;1.45;;
75887;SDS011;64562;55.662;37.300;2024-01-25T09:47:42;2.97;;;1.73;;
75887;SDS011;64562;55.662;37.300;2024-01-25T09:50:11;2.33;;;1.48;;
75887;SDS011;64562;55.662;37.300;2024-01-25T09:52:38;2.75;;;1.60;;
75887;SDS011;64562;55.662;37.300;2024-01-25T09:55:05;3.65;;;1.70;;
75887;SDS011;64562;55.662;37.300;2024-01-25T09:57:34;4.97;;;1.83;;
75887;SDS011;64562;55.662;37.300;2024-01-25T10:00:02;2.80;;;1.65;;
75887;SDS011;64562;55.662;37.300;2024-01-25T10:02:29;2.83;;;1.52;;
75887;SDS011;64562;55.662;37.300;2024-01-25T10:04:56;4.82;;;1.48;;
75887;SDS011;64562;55.662;37.300;2024-01-25T10:07:36;3.42;;;1.70;;
75887;SDS011;64562;55.662;37.300;2024-01-25T10:10:03;3.58;;;1.65;;
75887;SDS011;64562;55.662;37.300;2024-01-25T10:12:31;3.65;;;1.83;;
75887;SDS011;64562;55.662;37.300;2024-01-25T10:14:57;2.72;;;1.75;;
75887;SDS011;64562;55.662;37.300;2024-01-25T10:17:24;3.33;;;1.70;;
75887;SDS011;64562;55.662;37.300;2024-01-25T10:19:51;3.95;;;1.40;;
75887;SDS011;64562;55.662;37.300;2024-01-25T10:22:18;2.78;;;1.88;;
75887;SDS011;64562;55.662;37.300;2024-01-25T10:24:47;3.35;;;1.80;;
75887;SDS011;64562;55.662;37.300;2024-01-25T10:27:15;3.17;;;1.70;;
75887;SDS011;64562;55.662;37.300;2024-01-25T10:29:42;3.45;;;1.70;;
75887;SDS011;64562;55.662;37.300;2024-01-25T10:32:09;2.38;;;1.42;;
75887;SDS011;64562;55.662;37.300;2024-01-25T10:34:36;3.13;;;1.70;;
75887;SDS011;64562;55.662;37.300;2024-01-25T10:37:03;2.83;;;1.60;;
75887;SDS011;64562;55.662;37.300;2024-01-25T10:39:30;3.70;;;1.60;;
75887;SDS011;64562;55.662;37.300;2024-01-25T10:41:59;8.18;;;1.77;;
75887;SDS011;64562;55.662;37.300;2024-01-25T10:44:26;3.20;;;1.58;;
75887;SDS011;64562;55.662;37.300;2024-01-25T10:46:53;3.53;;;1.77;;
75887;SDS011;64562;55.662;37.300;2024-01-25T10:49:20;3.88;;;1.67;;
75887;SDS011;64562;55.662;37.300;2024-01-25T10:51:47;2.67;;;1.75;;
75887;SDS011;64562;55.662;37.300;2024-01-25T10:54:14;3.15;;;1.83;;
75887;SDS011;64562;55.662;37.300;2024-01-25T10:56:42;3.35;;;1.55;;
75887;SDS011;64562;55.662;37.300;2024-01-25T10:59:11;3.13;;;1.60;;
75887;SDS011;64562;55.662;37.300;2024-01-25T11:01:38;3.42;;;1.65;;
75887;SDS011;64562;55.662;37.300;2024-01-25T11:04:11;3.15;;;1.60;;
75887;SDS011;64562;55.662;37.300;2024-01-25T11:06:38;5.53;;;1.60;;
75887;SDS011;64562;55.662;37.300;2024-01-25T11:09:05;3.38;;;1.63;;
75887;SDS011;64562;55.662;37.300;2024-01-25T11:11:32;3.80;;;1.85;;
75887;SDS011;64562;55.662;37.300;2024-01-25T11:14:02;2.17;;;1.55;;
75887;SDS011;64562;55.662;37.300;2024-01-25T11:16:30;2.90;;;1.52;;
75887;SDS011;64562;55.662;37.300;2024-01-25T11:18:59;3.65;;;1.88;;
75887;SDS011;64562;55.662;37.300;2024-01-25T11:21:39;3.08;;;1.67;;
75887;SDS011;64562;55.662;37.300;2024-01-25T11:24:11;3.08;;;1.73;;
75887;SDS011;64562;55.662;37.300;2024-01-25T11:26:38;2.80;;;1.60;;
75887;SDS011;64562;55.662;37.300;2024-01-25T11:29:05;5.35;;;1.63;;
75887;SDS011;64562;55.662;37.300;2024-01-25T11:31:33;3.13;;;1.90;;
75887;SDS011;64562;55.662;37.300;2024-01-25T11:34:01;2.30;;;1.50;;
75887;SDS011;64562;55.662;37.300;2024-01-25T11:36:28;3.92;;;1.73;;
75887;SDS011;64562;55.662;37.300;2024-01-25T11:38:55;2.50;;;1.67;;
75887;SDS011;64562;55.662;37.300;2024-01-25T11:41:22;2.65;;;1.50;;
75887;SDS011;64562;55.662;37.300;2024-01-25T11:43:49;4.20;;;1.60;;
75887;SDS011;64562;55.662;37.300;2024-01-25T11:46:16;3.65;;;1.98;;
75887;SDS011;64562;55.662;37.300;2024-01-25T11:48:45;3.47;;;2.03;;
75887;SDS011;64562;55.662;37.300;2024-01-25T11:51:12;3.78;;;1.90;;
75887;SDS011;64562;55.662;37.300;2024-01-25T11:53:39;3.28;;;1.80;;
75887;SDS011;64562;55.662;37.300;2024-01-25T11:56:06;2.25;;;1.52;;
75887;SDS011;64562;55.662;37.300;2024-01-25T11:58:34;4.25;;;1.70;;
75887;SDS011;64562;55.662;37.300;2024-01-25T12:01:01;5.03;;;1.73;;
75887;SDS011;64562;55.662;37.300;2024-01-25T12:03:31;2.80;;;1.40;;
75887;SDS011;64562;55.662;37.300;2024-01-25T12:05:59;3.80;;;1.90;;
75887;SDS011;64562;55.662;37.300;2024-01-25T12:08:25;3.05;;;1.85;;
75887;SDS011;64562;55.662;37.300;2024-01-25T12:11:01;3.70;;;1.70;;
75887;SDS011;64562;55.662;37.300;2024-01-25T12:15:55;3.13;;;1.77;;
75887;SDS011;64562;55.662;37.300;2024-01-25T12:18:21;4.65;;;1.98;;
75887;SDS011;64562;55.662;37.300;2024-01-25T12:20:48;3.53;;;1.77;;
75887;SDS011;64562;55.662;37.300;2024-01-25T12:23:18;4.45;;;1.92;;
75887;SDS011;64562;55.662;37.300;2024-01-25T12:25:46;4.05;;;2.13;;
75887;SDS011;64562;55.662;37.300;2024-01-25T12:28:13;3.80;;;2.03;;
75887;SDS011;64562;55.662;37.300;2024-01-25T12:30:40;3.50;;;1.73;;
75887;SDS011;64562;55.662;37.300;2024-01-25T12:33:07;4.03;;;2.20;;
75887;SDS011;64562;55.662;37.300;2024-01-25T12:35:34;2.40;;;1.50;;
75887;SDS011;64562;55.662;37.300;2024-01-25T12:38:00;3.00;;;1.77;;
75887;SDS011;64562;55.662;37.300;2024-01-25T12:40:29;3.85;;;1.90;;
75887;SDS011;64562;55.662;37.300;2024-01-25T12:42:55;2.80;;;1.85;;
75887;SDS011;64562;55.662;37.300;2024-01-25T12:45:22;2.95;;;2.00;;
75887;SDS011;64562;55.662;37.300;2024-01-25T12:47:49;3.53;;;1.88;;
75887;SDS011;64562;55.662;37.300;2024-01-25T12:50:16;3.65;;;2.03;;
75887;SDS011;64562;55.662;37.300;2024-01-25T12:52:42;3.88;;;2.17;;
75887;SDS011;64562;55.662;37.300;2024-01-25T12:55:09;2.63;;;1.63;;
75887;SDS011;64562;55.662;37.300;2024-01-25T12:57:37;4.25;;;1.80;;
75887;SDS011;64562;55.662;37.300;2024-01-25T13:00:03;4.82;;;2.15;;
75887;SDS011;64562;55.662;37.300;2024-01-25T13:02:30;3.75;;;1.98;;
75887;SDS011;64562;55.662;37.300;2024-01-25T13:04:57;3.53;;;2.03;;
75887;SDS011;64562;55.662;37.300;2024-01-25T13:07:24;3.78;;;1.77;;
75887;SDS011;64562;55.662;37.300;2024-01-25T13:09:51;3.60;;;1.98;;
75887;SDS011;64562;55.662;37.300;2024-01-25T13:12:18;4.97;;;2.40;;
75887;SDS011;64562;55.662;37.300;2024-01-25T13:14:46;4.32;;;1.77;;
75887;SDS011;64562;55.662;37.300;2024-01-25T13:17:13;4.22;;;2.33;;
75887;SDS011;64562;55.662;37.300;2024-01-25T13:19:39;3.88;;;2.15;;
75887;SDS011;64562;55.662;37.300;2024-01-25T13:22:06;5.07;;;2.25;;
75887;SDS011;64562;55.662;37.300;2024-01-25T13:24:33;3.60;;;2.28;;
75887;SDS011;64562;55.662;37.300;2024-01-25T13:26:59;3.78;;;2.00;;
75887;SDS011;64562;55.662;37.300;2024-01-25T13:29:26;3.97;;;2.30;;
75887;SDS011;64562;55.662;37.300;2024-01-25T13:31:54;5.25;;;2.13;;
75887;SDS011;64562;55.662;37.300;2024-01-25T13:34:21;4.78;;;2.00;;
75887;SDS011;64562;55.662;37.300;2024-01-25T13:36:48;3.65;;;2.00;;
75887;SDS011;64562;55.662;37.300;2024-01-25T13:39:14;4.38;;;1.85;;
75887;SDS011;64562;55.662;37.300;2024-01-25T13:41:41;3.55;;;1.80;;
75887;SDS011;64562;55.662;37.300;2024-01-25T13:44:08;3.35;;;1.80;;
75887;SDS011;64562;55.662;37.300;2024-01-25T13:46:35;4.30;;;2.17;;
75887;SDS011;64562;55.662;37.300;2024-01-25T13:49:03;6.90;;;2.42;;
75887;SDS011;64562;55.662;37.300;2024-01-25T13:51:29;4.30;;;2.30;;
75887;SDS011;64562;55.662;37.300;2024-01-25T13:53:56;2.55;;;1.77;;
75887;SDS011;64562;55.662;37.300;2024-01-25T13:56:23;3.05;;;1.95;;
75887;SDS011;64562;55.662;37.300;2024-01-25T13:58:49;3.35;;;1.95;;
75887;SDS011;64562;55.662;37.300;2024-01-25T14:01:16;3.45;;;2.05;;
75887;SDS011;64562;55.662;37.300;2024-01-25T14:03:43;3.83;;;2.22;;
75887;SDS011;64562;55.662;37.300;2024-01-25T14:06:11;2.85;;;1.58;;
75887;SDS011;64562;55.662;37.300;2024-01-25T14:08:38;3.47;;;1.92;;
75887;SDS011;64562;55.662;37.300;2024-01-25T14:11:05;4.25;;;2.28;;
75887;SDS011;64562;55.662;37.300;2024-01-25T14:13:32;5.72;;;2.08;;
75887;SDS011;64562;55.662;37.300;2024-01-25T14:15:58;5.28;;;2.17;;
75887;SDS011;64562;55.662;37.300;2024-01-25T14:18:26;4.18;;;2.33;;
75887;SDS011;64562;55.662;37.300;2024-01-25T14:20:53;4.22;;;2.00;;
75887;SDS011;64562;55.662;37.300;2024-01-25T14:23:21;3.38;;;2.00;;
75887;SDS011;64562;55.662;37.300;2024-01-25T14:25:48;3.28;;;2.00;;
75887;SDS011;64562;55.662;37.300;2024-01-25T14:28:15;3.28;;;2.03;;
75887;SDS011;64562;55.662;37.300;2024-01-25T14:30:42;3.70;;;2.17;;
75887;SDS011;64562;55.662;37.300;2024-01-25T14:33:11;3.47;;;2.00;;
75887;SDS011;64562;55.662;37.300;2024-01-25T14:35:37;4.53;;;2.22;;